sensor_id;sensor_type;location;lat;lon;timestamp;P1;P2;P0
74419;PMS5003;62855;50.718;-2.460;2023-07-29T00:00:07;5.45;4.89;
74419;PMS5003;62855;50.718;-2.460;2023-07-29T00:03:06;5.45;4.89;
74419;PMS5003;62855;50.718;-2.460;2023-07-29T00:06:05;5.45;4.89;
74419;PMS5003;62855;50.718;-2.460;2023-07-29T00:09:06;5.45;4.89;
74419;PMS5003;62855;50.718;-2.460;2023-07-29T00:12:05;5.45;4.89;
74419;PMS5003;62855;50.718;-2.460;2023-07-29T00:15:07;5.45;4.89;
74419;PMS5003;62855;50.718;-2.460;2023-07-29T00:18:05;6.35;5.87;
74419;PMS5003;62855;50.718;-2.460;2023-07-29T00:21:06;6.35;4.89;
74419;PMS5003;62855;50.718;-2.460;2023-07-29T00:24:06;5.45;4.89;
74419;PMS5003;62855;50.718;-2.460;2023-07-29T00:27:05;6.35;4.89;
74419;PMS5003;62855;50.718;-2.460;2023-07-29T00:30:06;7.26;4.89;
74419;PMS5003;62855;50.718;-2.460;2023-07-29T00:33:05;6.35;4.89;
74419;PMS5003;62855;50.718;-2.460;2023-07-29T00:36:06;6.35;4.89;
74419;PMS5003;62855;50.718;-2.460;2023-07-29T00:39:06;6.35;5.87;
74419;PMS5003;62855;50.718;-2.460;2023-07-29T00:42:05;6.35;5.87;
74419;PMS5003;62855;50.718;-2.460;2023-07-29T00:45:06;6.35;5.87;
74419;PMS5003;62855;50.718;-2.460;2023-07-29T00:48:06;5.45;4.89;
74419;PMS5003;62855;50.718;-2.460;2023-07-29T00:51:06;4.54;4.89;
74419;PMS5003;62855;50.718;-2.460;2023-07-29T00:54:06;6.35;5.87;
74419;PMS5003;62855;50.718;-2.460;2023-07-29T00:57:06;5.45;4.89;
74419;PMS5003;62855;50.718;-2.460;2023-07-29T01:00:06;5.45;4.89;
74419;PMS5003;62855;50.718;-2.460;2023-07-29T01:03:06;5.45;4.89;
74419;PMS5003;62855;50.718;-2.460;2023-07-29T01:06:08;5.45;4.89;
74419;PMS5003;62855;50.718;-2.460;2023-07-29T01:09:06;6.35;4.89;
74419;PMS5003;62855;50.718;-2.460;2023-07-29T01:12:07;6.35;3.91;
74419;PMS5003;62855;50.718;-2.460;2023-07-29T01:15:09;6.35;3.91;
74419;PMS5003;62855;50.718;-2.460;2023-07-29T01:18:08;6.35;3.91;
74419;PMS5003;62855;50.718;-2.460;2023-07-29T01:21:07;6.35;3.91;
74419;PMS5003;62855;50.718;-2.460;2023-07-29T01:24:05;4.54;3.91;
74419;PMS5003;62855;50.718;-2.460;2023-07-29T01:27:06;5.45;3.91;
74419;PMS5003;62855;50.718;-2.460;2023-07-29T01:30:06;4.54;3.91;
74419;PMS5003;62855;50.718;-2.460;2023-07-29T01:33:08;4.54;3.91;
74419;PMS5003;62855;50.718;-2.460;2023-07-29T01:36:07;3.63;2.93;
74419;PMS5003;62855;50.718;-2.460;2023-07-29T01:39:05;2.72;2.93;
74419;PMS5003;62855;50.718;-2.460;2023-07-29T01:42:05;4.54;3.91;
74419;PMS5003;62855;50.718;-2.460;2023-07-29T01:45:06;5.45;3.91;
74419;PMS5003;62855;50.718;-2.460;2023-07-29T01:48:06;7.26;3.91;
74419;PMS5003;62855;50.718;-2.460;2023-07-29T01:51:06;9.08;5.87;
74419;PMS5003;62855;50.718;-2.460;2023-07-29T01:54:06;9.08;4.89;
74419;PMS5003;62855;50.718;-2.460;2023-07-29T01:57:06;9.08;5.87;
74419;PMS5003;62855;50.718;-2.460;2023-07-29T02:00:30;9.08;5.87;
74419;PMS5003;62855;50.718;-2.460;2023-07-29T02:13:05;9.08;4.89;
74419;PMS5003;62855;50.718;-2.460;2023-07-29T02:19:06;9.08;4.89;
74419;PMS5003;62855;50.718;-2.460;2023-07-29T02:22:06;9.08;4.89;
74419;PMS5003;62855;50.718;-2.460;2023-07-29T02:25:05;8.17;3.91;
74419;PMS5003;62855;50.718;-2.460;2023-07-29T02:28:05;8.17;4.89;
74419;PMS5003;62855;50.718;-2.460;2023-07-29T02:31:09;7.26;3.91;
74419;PMS5003;62855;50.718;-2.460;2023-07-29T02:34:06;4.54;4.89;
74419;PMS5003;62855;50.718;-2.460;2023-07-29T02:37:06;3.63;3.91;
74419;PMS5003;62855;50.718;-2.460;2023-07-29T02:40:06;2.72;2.93;
74419;PMS5003;62855;50.718;-2.460;2023-07-29T02:43:05;2.72;2.93;
74419;PMS5003;62855;50.718;-2.460;2023-07-29T02:46:06;2.72;2.93;
74419;PMS5003;62855;50.718;-2.460;2023-07-29T02:49:06;1.82;1.96;
74419;PMS5003;62855;50.718;-2.460;2023-07-29T02:52:06;2.72;2.93;
74419;PMS5003;62855;50.718;-2.460;2023-07-29T02:55:06;2.72;2.93;
74419;PMS5003;62855;50.718;-2.460;2023-07-29T02:58:06;2.72;2.93;
74419;PMS5003;62855;50.718;-2.460;2023-07-29T03:01:06;3.63;2.93;
74419;PMS5003;62855;50.718;-2.460;2023-07-29T03:04:06;3.63;2.93;
74419;PMS5003;62855;50.718;-2.460;2023-07-29T03:07:05;3.63;2.93;
74419;PMS5003;62855;50.718;-2.460;2023-07-29T03:10:05;4.54;4.89;
74419;PMS5003;62855;50.718;-2.460;2023-07-29T03:13:05;5.45;4.89;
74419;PMS5003;62855;50.718;-2.460;2023-07-29T03:16:06;4.54;4.89;
74419;PMS5003;62855;50.718;-2.460;2023-07-29T03:19:05;5.45;4.89;
74419;PMS5003;62855;50.718;-2.460;2023-07-29T03:22:06;5.45;4.89;
74419;PMS5003;62855;50.718;-2.460;2023-07-29T03:25:06;5.45;4.89;
74419;PMS5003;62855;50.718;-2.460;2023-07-29T03:28:06;5.45;5.87;
74419;PMS5003;62855;50.718;-2.460;2023-07-29T03:31:06;5.45;5.87;
74419;PMS5003;62855;50.718;-2.460;2023-07-29T03:34:05;5.45;5.87;
74419;PMS5003;62855;50.718;-2.460;2023-07-29T03:37:06;5.45;5.87;
74419;PMS5003;62855;50.718;-2.460;2023-07-29T03:40:06;3.63;3.91;
74419;PMS5003;62855;50.718;-2.460;2023-07-29T03:43:06;6.35;5.87;
74419;PMS5003;62855;50.718;-2.460;2023-07-29T03:46:06;6.35;5.87;
74419;PMS5003;62855;50.718;-2.460;2023-07-29T03:49:06;6.35;5.87;
74419;PMS5003;62855;50.718;-2.460;2023-07-29T03:52:06;6.35;5.87;
74419;PMS5003;62855;50.718;-2.460;2023-07-29T03:55:06;5.45;5.87;
74419;PMS5003;62855;50.718;-2.460;2023-07-29T03:58:06;5.45;5.87;
74419;PMS5003;62855;50.718;-2.460;2023-07-29T04:01:06;5.45;4.89;
74419;PMS5003;62855;50.718;-2.460;2023-07-29T04:04:05;5.45;4.89;
74419;PMS5003;62855;50.718;-2.460;2023-07-29T04:07:05;5.45;4.89;
74419;PMS5003;62855;50.718;-2.460;2023-07-29T04:10:07;5.45;4.89;
74419;PMS5003;62855;50.718;-2.460;2023-07-29T04:13:06;3.63;3.91;
74419;PMS5003;62855;50.718;-2.460;2023-07-29T04:16:06;3.63;2.93;
74419;PMS5003;62855;50.718;-2.460;2023-07-29T04:19:06;2.72;2.93;
74419;PMS5003;62855;50.718;-2.460;2023-07-29T04:22:06;2.72;2.93;
74419;PMS5003;62855;50.718;-2.460;2023-07-29T04:25:06;2.72;1.96;
74419;PMS5003;62855;50.718;-2.460;2023-07-29T04:28:06;3.63;2.93;
74419;PMS5003;62855;50.718;-2.460;2023-07-29T04:31:05;3.63;2.93;
74419;PMS5003;62855;50.718;-2.460;2023-07-29T04:34:05;2.72;2.93;
74419;PMS5003;62855;50.718;-2.460;2023-07-29T04:37:06;2.72;2.93;
74419;PMS5003;62855;50.718;-2.460;2023-07-29T04:40:06;2.72;2.93;
74419;PMS5003;62855;50.718;-2.460;2023-07-29T04:43:06;2.72;2.93;
74419;PMS5003;62855;50.718;-2.460;2023-07-29T04:46:06;2.72;2.93;
74419;PMS5003;62855;50.718;-2.460;2023-07-29T04:49:06;2.72;2.93;
74419;PMS5003;62855;50.718;-2.460;2023-07-29T04:52:06;3.63;3.91;
74419;PMS5003;62855;50.718;-2.460;2023-07-29T04:55:06;3.63;3.91;
74419;PMS5003;62855;50.718;-2.460;2023-07-29T04:58:05;2.72;2.93;
74419;PMS5003;62855;50.718;-2.460;2023-07-29T05:01:06;1.82;1.96;
74419;PMS5003;62855;50.718;-2.460;2023-07-29T05:04:06;2.72;2.93;
74419;PMS5003;62855;50.718;-2.460;2023-07-29T05:07:05;3.63;3.91;
74419;PMS5003;62855;50.718;-2.460;2023-07-29T05:10:06;3.63;2.93;
74419;PMS5003;62855;50.718;-2.460;2023-07-29T05:13:06;3.63;2.93;
74419;PMS5003;62855;50.718;-2.460;2023-07-29T05:16:05;3.63;2.93;
74419;PMS5003;62855;50.718;-2.460;2023-07-29T05:19:06;2.72;1.96;
74419;PMS5003;62855;50.718;-2.460;2023-07-29T05:22:06;3.63;3.91;
74419;PMS5003;62855;50.718;-2.460;2023-07-29T05:25:06;3.63;3.91;
74419;PMS5003;62855;50.718;-2.460;2023-07-29T05:28:06;3.63;3.91;
74419;PMS5003;62855;50.718;-2.460;2023-07-29T05:31:06;3.63;3.91;
74419;PMS5003;62855;50.718;-2.460;2023-07-29T05:34:05;3.63;3.91;
74419;PMS5003;62855;50.718;-2.460;2023-07-29T05:37:06;3.63;3.91;
74419;PMS5003;62855;50.718;-2.460;2023-07-29T05:40:06;3.63;3.91;
74419;PMS5003;62855;50.718;-2.460;2023-07-29T05:43:06;2.72;2.93;
74419;PMS5003;62855;50.718;-2.460;2023-07-29T05:46:06;3.63;3.91;
74419;PMS5003;62855;50.718;-2.460;2023-07-29T05:49:05;3.63;3.91;
74419;PMS5003;62855;50.718;-2.460;2023-07-29T05:52:06;2.72;2.93;
74419;PMS5003;62855;50.718;-2.460;2023-07-29T05:55:06;2.72;2.93;
74419;PMS5003;62855;50.718;-2.460;2023-07-29T05:58:05;2.72;2.93;
74419;PMS5003;62855;50.718;-2.460;2023-07-29T06:01:05;3.63;3.91;
74419;PMS5003;62855;50.718;-2.460;2023-07-29T06:04:06;3.63;3.91;
74419;PMS5003;62855;50.718;-2.460;2023-07-29T06:07:06;3.63;3.91;
74419;PMS5003;62855;50.718;-2.460;2023-07-29T06:10:06;3.63;3.91;
74419;PMS5003;62855;50.718;-2.460;2023-07-29T06:13:06;3.63;3.91;
74419;PMS5003;62855;50.718;-2.460;2023-07-29T06:16:06;2.72;2.93;
74419;PMS5003;62855;50.718;-2.460;2023-07-29T06:19:06;3.63;3.91;
74419;PMS5003;62855;50.718;-2.460;2023-07-29T06:22:05;3.63;3.91;
74419;PMS5003;62855;50.718;-2.460;2023-07-29T06:25:06;3.63;3.91;
74419;PMS5003;62855;50.718;-2.460;2023-07-29T06:28:05;5.45;4.89;
74419;PMS5003;62855;50.718;-2.460;2023-07-29T06:31:06;4.54;3.91;
74419;PMS5003;62855;50.718;-2.460;2023-07-29T06:34:06;4.54;3.91;
74419;PMS5003;62855;50.718;-2.460;2023-07-29T06:37:06;4.54;3.91;
74419;PMS5003;62855;50.718;-2.460;2023-07-29T06:40:06;5.45;4.89;
74419;PMS5003;62855;50.718;-2.460;2023-07-29T06:43:06;5.45;4.89;
74419;PMS5003;62855;50.718;-2.460;2023-07-29T06:46:06;5.45;4.89;
74419;PMS5003;62855;50.718;-2.460;2023-07-29T06:49:06;5.45;4.89;
74419;PMS5003;62855;50.718;-2.460;2023-07-29T06:52:06;5.45;4.89;
74419;PMS5003;62855;50.718;-2.460;2023-07-29T06:55:06;5.45;4.89;
74419;PMS5003;62855;50.718;-2.460;2023-07-29T06:58:05;3.63;3.91;
74419;PMS5003;62855;50.718;-2.460;2023-07-29T07:01:05;3.63;3.91;
74419;PMS5003;62855;50.718;-2.460;2023-07-29T07:04:06;3.63;3.91;
74419;PMS5003;62855;50.718;-2.460;2023-07-29T07:07:06;3.63;3.91;
74419;PMS5003;62855;50.718;-2.460;2023-07-29T07:10:06;3.63;3.91;
74419;PMS5003;62855;50.718;-2.460;2023-07-29T07:13:06;3.63;3.91;
74419;PMS5003;62855;50.718;-2.460;2023-07-29T07:16:06;3.63;3.91;
74419;PMS5003;62855;50.718;-2.460;2023-07-29T07:19:05;3.63;3.91;
74419;PMS5003;62855;50.718;-2.460;2023-07-29T07:22:06;3.63;2.93;
74419;PMS5003;62855;50.718;-2.460;2023-07-29T07:25:06;3.63;2.93;
74419;PMS5003;62855;50.718;-2.460;2023-07-29T07:28:05;4.54;3.91;
74419;PMS5003;62855;50.718;-2.460;2023-07-29T07:31:06;4.54;3.91;
74419;PMS5003;62855;50.718;-2.460;2023-07-29T07:34:06;5.45;3.91;
74419;PMS5003;62855;50.718;-2.460;2023-07-29T07:37:06;4.54;3.91;
74419;PMS5003;62855;50.718;-2.460;2023-07-29T07:40:06;5.45;3.91;
74419;PMS5003;62855;50.718;-2.460;2023-07-29T07:43:06;5.45;4.89;
74419;PMS5003;62855;50.718;-2.460;2023-07-29T07:46:05;4.54;3.91;
74419;PMS5003;62855;50.718;-2.460;2023-07-29T07:49:06;5.45;4.89;
74419;PMS5003;62855;50.718;-2.460;2023-07-29T07:52:06;4.54;4.89;
74419;PMS5003;62855;50.718;-2.460;2023-07-29T07:55:06;4.54;3.91;
74419;PMS5003;62855;50.718;-2.460;2023-07-29T07:58:05;4.54;3.91;
74419;PMS5003;62855;50.718;-2.460;2023-07-29T08:01:06;4.54;4.89;
74419;PMS5003;62855;50.718;-2.460;2023-07-29T08:04:06;3.63;3.91;
74419;PMS5003;62855;50.718;-2.460;2023-07-29T08:07:05;4.54;4.89;
74419;PMS5003;62855;50.718;-2.460;2023-07-29T08:10:07;3.63;3.91;
74419;PMS5003;62855;50.718;-2.460;2023-07-29T08:13:06;4.54;3.91;
74419;PMS5003;62855;50.718;-2.460;2023-07-29T08:16:05;3.63;2.93;
74419;PMS5003;62855;50.718;-2.460;2023-07-29T08:19:06;4.54;3.91;
74419;PMS5003;62855;50.718;-2.460;2023-07-29T08:22:06;4.54;4.89;
74419;PMS5003;62855;50.718;-2.460;2023-07-29T08:25:06;4.54;4.89;
74419;PMS5003;62855;50.718;-2.460;2023-07-29T08:28:06;4.54;3.91;
74419;PMS5003;62855;50.718;-2.460;2023-07-29T08:31:05;3.63;3.91;
74419;PMS5003;62855;50.718;-2.460;2023-07-29T08:34:06;3.63;3.91;
74419;PMS5003;62855;50.718;-2.460;2023-07-29T08:37:06;3.63;2.93;
74419;PMS5003;62855;50.718;-2.460;2023-07-29T08:40:06;4.54;3.91;
74419;PMS5003;62855;50.718;-2.460;2023-07-29T08:43:06;3.63;2.93;
74419;PMS5003;62855;50.718;-2.460;2023-07-29T08:46:05;2.72;2.93;
74419;PMS5003;62855;50.718;-2.460;2023-07-29T08:49:05;2.72;1.96;
74419;PMS5003;62855;50.718;-2.460;2023-07-29T08:52:06;2.72;2.93;
74419;PMS5003;62855;50.718;-2.460;2023-07-29T08:55:06;3.63;2.93;
74419;PMS5003;62855;50.718;-2.460;2023-07-29T08:58:06;3.63;2.93;
74419;PMS5003;62855;50.718;-2.460;2023-07-29T09:01:06;3.63;1.96;
74419;PMS5003;62855;50.718;-2.460;2023-07-29T09:04:06;4.54;2.93;
74419;PMS5003;62855;50.718;-2.460;2023-07-29T09:07:05;4.54;2.93;
74419;PMS5003;62855;50.718;-2.460;2023-07-29T09:10:08;2.72;1.96;
74419;PMS5003;62855;50.718;-2.460;2023-07-29T09:13:06;2.72;1.96;
74419;PMS5003;62855;50.718;-2.460;2023-07-29T09:16:05;3.63;1.96;
74419;PMS5003;62855;50.718;-2.460;2023-07-29T09:19:06;3.63;2.93;
74419;PMS5003;62855;50.718;-2.460;2023-07-29T09:22:08;3.63;1.96;
74419;PMS5003;62855;50.718;-2.460;2023-07-29T09:25:06;2.72;1.96;
74419;PMS5003;62855;50.718;-2.460;2023-07-29T09:28:08;2.72;1.96;
74419;PMS5003;62855;50.718;-2.460;2023-07-29T09:31:06;1.82;1.96;
74419;PMS5003;62855;50.718;-2.460;2023-07-29T09:34:05;1.82;1.96;
74419;PMS5003;62855;50.718;-2.460;2023-07-29T09:37:06;3.63;1.96;
74419;PMS5003;62855;50.718;-2.460;2023-07-29T09:40:06;3.63;1.96;
74419;PMS5003;62855;50.718;-2.460;2023-07-29T09:43:07;3.63;1.96;
74419;PMS5003;62855;50.718;-2.460;2023-07-29T09:46:06;3.63;1.96;
74419;PMS5003;62855;50.718;-2.460;2023-07-29T09:49:06;3.63;1.96;
74419;PMS5003;62855;50.718;-2.460;2023-07-29T09:52:06;4.54;2.93;
74419;PMS5003;62855;50.718;-2.460;2023-07-29T09:55:06;5.45;3.91;
74419;PMS5003;62855;50.718;-2.460;2023-07-29T09:58:06;5.45;3.91;
74419;PMS5003;62855;50.718;-2.460;2023-07-29T10:01:06;5.45;3.91;
74419;PMS5003;62855;50.718;-2.460;2023-07-29T10:04:06;5.45;3.91;
74419;PMS5003;62855;50.718;-2.460;2023-07-29T10:07:06;4.54;3.91;
74419;PMS5003;62855;50.718;-2.460;2023-07-29T10:10:07;3.63;2.93;
74419;PMS5003;62855;50.718;-2.460;2023-07-29T10:13:06;3.63;2.93;
74419;PMS5003;62855;50.718;-2.460;2023-07-29T10:16:06;4.54;3.91;
74419;PMS5003;62855;50.718;-2.460;2023-07-29T10:19:06;4.54;3.91;
74419;PMS5003;62855;50.718;-2.460;2023-07-29T10:22:05;3.63;2.93;
74419;PMS5003;62855;50.718;-2.460;2023-07-29T10:25:08;3.63;2.93;
74419;PMS5003;62855;50.718;-2.460;2023-07-29T10:28:07;3.63;2.93;
74419;PMS5003;62855;50.718;-2.460;2023-07-29T10:31:05;3.63;2.93;
74419;PMS5003;62855;50.718;-2.460;2023-07-29T10:34:06;4.54;3.91;
74419;PMS5003;62855;50.718;-2.460;2023-07-29T10:37:06;3.63;3.91;
74419;PMS5003;62855;50.718;-2.460;2023-07-29T10:40:06;4.54;4.89;
74419;PMS5003;62855;50.718;-2.460;2023-07-29T10:43:09;4.54;4.89;
74419;PMS5003;62855;50.718;-2.460;2023-07-29T10:49:05;4.54;4.89;
74419;PMS5003;62855;50.718;-2.460;2023-07-29T10:52:06;4.54;4.89;
74419;PMS5003;62855;50.718;-2.460;2023-07-29T10:58:06;4.54;4.89;
74419;PMS5003;62855;50.718;-2.460;2023-07-29T11:10:06;3.63;3.91;
74419;PMS5003;62855;50.718;-2.460;2023-07-29T11:13:06;3.63;3.91;
74419;PMS5003;62855;50.718;-2.460;2023-07-29T11:16:05;3.63;3.91;
74419;PMS5003;62855;50.718;-2.460;2023-07-29T11:19:06;2.72;2.93;
74419;PMS5003;62855;50.718;-2.460;2023-07-29T11:22:06;3.63;3.91;
74419;PMS5003;62855;50.718;-2.460;2023-07-29T11:25:07;3.63;3.91;
74419;PMS5003;62855;50.718;-2.460;2023-07-29T11:28:05;3.63;3.91;
74419;PMS5003;62855;50.718;-2.460;2023-07-29T11:31:06;3.63;3.91;
74419;PMS5003;62855;50.718;-2.460;2023-07-29T11:34:06;3.63;3.91;
74419;PMS5003;62855;50.718;-2.460;2023-07-29T11:37:06;2.72;2.93;
74419;PMS5003;62855;50.718;-2.460;2023-07-29T11:40:06;2.72;2.93;
74419;PMS5003;62855;50.718;-2.460;2023-07-29T11:43:06;2.72;2.93;
74419;PMS5003;62855;50.718;-2.460;2023-07-29T11:46:06;2.72;2.93;
74419;PMS5003;62855;50.718;-2.460;2023-07-29T11:49:05;2.72;2.93;
74419;PMS5003;62855;50.718;-2.460;2023-07-29T11:52:07;2.72;2.93;
74419;PMS5003;62855;50.718;-2.460;2023-07-29T11:55:06;1.82;1.96;
74419;PMS5003;62855;50.718;-2.460;2023-07-29T11:58:06;1.82;1.96;
74419;PMS5003;62855;50.718;-2.460;2023-07-29T12:01:06;1.82;1.96;
74419;PMS5003;62855;50.718;-2.460;2023-07-29T12:04:05;2.72;2.93;
74419;PMS5003;62855;50.718;-2.460;2023-07-29T12:07:06;2.72;2.93;
74419;PMS5003;62855;50.718;-2.460;2023-07-29T12:10:06;2.72;2.93;
74419;PMS5003;62855;50.718;-2.460;2023-07-29T12:13:05;4.54;3.91;
74419;PMS5003;62855;50.718;-2.460;2023-07-29T12:16:06;3.63;2.93;
74419;PMS5003;62855;50.718;-2.460;2023-07-29T12:19:06;3.63;2.93;
74419;PMS5003;62855;50.718;-2.460;2023-07-29T12:22:06;4.54;3.91;
74419;PMS5003;62855;50.718;-2.460;2023-07-29T12:25:06;4.54;3.91;
74419;PMS5003;62855;50.718;-2.460;2023-07-29T12:28:06;4.54;3.91;
74419;PMS5003;62855;50.718;-2.460;2023-07-29T12:31:07;4.54;3.91;
74419;PMS5003;62855;50.718;-2.460;2023-07-29T12:34:06;4.54;4.89;
74419;PMS5003;62855;50.718;-2.460;2023-07-29T12:37:06;5.45;4.89;
74419;PMS5003;62855;50.718;-2.460;2023-07-29T12:40:06;5.45;4.89;
74419;PMS5003;62855;50.718;-2.460;2023-07-29T12:43:06;3.63;3.91;
74419;PMS5003;62855;50.718;-2.460;2023-07-29T12:46:06;4.54;4.89;
74419;PMS5003;62855;50.718;-2.460;2023-07-29T12:49:05;4.54;4.89;
74419;PMS5003;62855;50.718;-2.460;2023-07-29T12:52:06;6.35;4.89;
74419;PMS5003;62855;50.718;-2.460;2023-07-29T12:55:06;6.35;4.89;
74419;PMS5003;62855;50.718;-2.460;2023-07-29T12:58:05;6.35;4.89;
74419;PMS5003;62855;50.718;-2.460;2023-07-29T13:01:05;6.35;5.87;
74419;PMS5003;62855;50.718;-2.460;2023-07-29T13:04:06;6.35;4.89;
74419;PMS5003;62855;50.718;-2.460;2023-07-29T13:07:06;6.35;4.89;
74419;PMS5003;62855;50.718;-2.460;2023-07-29T13:10:07;6.35;4.89;
74419;PMS5003;62855;50.718;-2.460;2023-07-29T13:13:06;6.35;4.89;
74419;PMS5003;62855;50.718;-2.460;2023-07-29T13:16:05;6.35;4.89;
74419;PMS5003;62855;50.718;-2.460;2023-07-29T13:19:06;5.45;3.91;
74419;PMS5003;62855;50.718;-2.460;2023-07-29T13:22:05;3.63;3.91;
74419;PMS5003;62855;50.718;-2.460;2023-07-29T13:25:06;3.63;3.91;
74419;PMS5003;62855;50.718;-2.460;2023-07-29T13:28:06;3.63;3.91;
74419;PMS5003;62855;50.718;-2.460;2023-07-29T13:31:06;3.63;3.91;
74419;PMS5003;62855;50.718;-2.460;2023-07-29T13:34:05;2.72;2.93;
74419;PMS5003;62855;50.718;-2.460;2023-07-29T13:37:06;2.72;2.93;
74419;PMS5003;62855;50.718;-2.460;2023-07-29T13:40:07;2.72;2.93;
74419;PMS5003;62855;50.718;-2.460;2023-07-29T13:43:06;2.72;2.93;
74419;PMS5003;62855;50.718;-2.460;2023-07-29T13:46:05;2.72;2.93;
74419;PMS5003;62855;50.718;-2.460;2023-07-29T13:49:06;3.63;2.93;
74419;PMS5003;62855;50.718;-2.460;2023-07-29T13:52:06;3.63;3.91;
74419;PMS5003;62855;50.718;-2.460;2023-07-29T13:55:06;4.54;3.91;
74419;PMS5003;62855;50.718;-2.460;2023-07-29T13:58:06;4.54;3.91;
74419;PMS5003;62855;50.718;-2.460;2023-07-29T14:01:05;4.54;3.91;
74419;PMS5003;62855;50.718;-2.460;2023-07-29T14:04:05;4.54;3.91;
74419;PMS5003;62855;50.718;-2.460;2023-07-29T14:07:06;4.54;3.91;
74419;PMS5003;62855;50.718;-2.460;2023-07-29T14:10:06;4.54;3.91;
74419;PMS5003;62855;50.718;-2.460;2023-07-29T14:13:06;4.54;3.91;
74419;PMS5003;62855;50.718;-2.460;2023-07-29T14:16:06;4.54;3.91;
74419;PMS5003;62855;50.718;-2.460;2023-07-29T14:19:05;4.54;3.91;
74419;PMS5003;62855;50.718;-2.460;2023-07-29T14:22:06;3.63;2.93;
74419;PMS5003;62855;50.718;-2.460;2023-07-29T14:25:06;3.63;2.93;
74419;PMS5003;62855;50.718;-2.460;2023-07-29T14:28:06;3.63;2.93;
74419;PMS5003;62855;50.718;-2.460;2023-07-29T14:31:05;3.63;2.93;
74419;PMS5003;62855;50.718;-2.460;2023-07-29T14:34:06;3.63;2.93;
74419;PMS5003;62855;50.718;-2.460;2023-07-29T14:37:06;3.63;2.93;
74419;PMS5003;62855;50.718;-2.460;2023-07-29T14:40:06;3.63;2.93;
74419;PMS5003;62855;50.718;-2.460;2023-07-29T14:43:05;4.54;2.93;
74419;PMS5003;62855;50.718;-2.460;2023-07-29T14:46:06;5.45;2.93;
74419;PMS5003;62855;50.718;-2.460;2023-07-29T14:49:05;5.45;3.91;
74419;PMS5003;62855;50.718;-2.460;2023-07-29T14:52:06;5.45;2.93;
74419;PMS5003;62855;50.718;-2.460;2023-07-29T14:55:06;4.54;2.93;
74419;PMS5003;62855;50.718;-2.460;2023-07-29T14:58:06;3.63;2.93;
74419;PMS5003;62855;50.718;-2.460;2023-07-29T15:01:06;3.63;2.93;
74419;PMS5003;62855;50.718;-2.460;2023-07-29T15:04:06;3.63;2.93;
74419;PMS5003;62855;50.718;-2.460;2023-07-29T15:07:05;3.63;2.93;
74419;PMS5003;62855;50.718;-2.460;2023-07-29T15:10:07;3.63;2.93;
74419;PMS5003;62855;50.718;-2.460;2023-07-29T15:13:06;2.72;2.93;
74419;PMS5003;62855;50.718;-2.460;2023-07-29T15:16:05;3.63;2.93;
74419;PMS5003;62855;50.718;-2.460;2023-07-29T15:19:06;5.45;2.93;
74419;PMS5003;62855;50.718;-2.460;2023-07-29T15:22:06;7.26;3.91;
74419;PMS5003;62855;50.718;-2.460;2023-07-29T15:25:08;6.35;3.91;
74419;PMS5003;62855;50.718;-2.460;2023-07-29T15:28:06;6.35;3.91;
74419;PMS5003;62855;50.718;-2.460;2023-07-29T15:31:06;5.45;2.93;
74419;PMS5003;62855;50.718;-2.460;2023-07-29T15:34:06;6.35;2.93;
74419;PMS5003;62855;50.718;-2.460;2023-07-29T15:37:06;7.26;3.91;
74419;PMS5003;62855;50.718;-2.460;2023-07-29T15:40:06;6.35;2.93;
74419;PMS5003;62855;50.718;-2.460;2023-07-29T15:43:06;6.35;2.93;
74419;PMS5003;62855;50.718;-2.460;2023-07-29T15:46:05;6.35;3.91;
74419;PMS5003;62855;50.718;-2.460;2023-07-29T15:49:05;4.54;3.91;
74419;PMS5003;62855;50.718;-2.460;2023-07-29T15:52:06;3.63;3.91;
74419;PMS5003;62855;50.718;-2.460;2023-07-29T15:55:06;4.54;3.91;
74419;PMS5003;62855;50.718;-2.460;2023-07-29T15:58:06;4.54;3.91;
74419;PMS5003;62855;50.718;-2.460;2023-07-29T16:01:05;3.63;3.91;
74419;PMS5003;62855;50.718;-2.460;2023-07-29T16:04:06;3.63;3.91;
74419;PMS5003;62855;50.718;-2.460;2023-07-29T16:07:06;3.63;3.91;
74419;PMS5003;62855;50.718;-2.460;2023-07-29T16:10:06;4.54;3.91;
74419;PMS5003;62855;50.718;-2.460;2023-07-29T16:13:05;4.54;3.91;
74419;PMS5003;62855;50.718;-2.460;2023-07-29T16:16:06;4.54;3.91;
74419;PMS5003;62855;50.718;-2.460;2023-07-29T16:19:06;3.63;2.93;
74419;PMS5003;62855;50.718;-2.460;2023-07-29T16:22:05;3.63;2.93;
74419;PMS5003;62855;50.718;-2.460;2023-07-29T16:25:06;3.63;2.93;
74419;PMS5003;62855;50.718;-2.460;2023-07-29T16:28:06;3.63;2.93;
74419;PMS5003;62855;50.718;-2.460;2023-07-29T16:31:06;3.63;2.93;
74419;PMS5003;62855;50.718;-2.460;2023-07-29T16:34:06;3.63;2.93;
74419;PMS5003;62855;50.718;-2.460;2023-07-29T16:37:06;3.63;2.93;
74419;PMS5003;62855;50.718;-2.460;2023-07-29T16:40:06;2.72;1.96;
74419;PMS5003;62855;50.718;-2.460;2023-07-29T16:43:06;3.63;2.93;
74419;PMS5003;62855;50.718;-2.460;2023-07-29T16:46:06;2.72;2.93;
74419;PMS5003;62855;50.718;-2.460;2023-07-29T16:49:05;2.72;1.96;
74419;PMS5003;62855;50.718;-2.460;2023-07-29T16:52:06;2.72;2.93;
74419;PMS5003;62855;50.718;-2.460;2023-07-29T16:55:06;2.72;2.93;
74419;PMS5003;62855;50.718;-2.460;2023-07-29T16:58:05;2.72;1.96;
74419;PMS5003;62855;50.718;-2.460;2023-07-29T17:01:06;3.63;2.93;
74419;PMS5003;62855;50.718;-2.460;2023-07-29T17:04:06;3.63;2.93;
74419;PMS5003;62855;50.718;-2.460;2023-07-29T17:07:06;4.54;2.93;
74419;PMS5003;62855;50.718;-2.460;2023-07-29T17:10:06;4.54;2.93;
74419;PMS5003;62855;50.718;-2.460;2023-07-29T17:13:05;4.54;2.93;
74419;PMS5003;62855;50.718;-2.460;2023-07-29T17:16:06;4.54;3.91;
74419;PMS5003;62855;50.718;-2.460;2023-07-29T17:19:06;5.45;3.91;
74419;PMS5003;62855;50.718;-2.460;2023-07-29T17:22:05;5.45;3.91;
74419;PMS5003;62855;50.718;-2.460;2023-07-29T17:25:05;4.54;3.91;
74419;PMS5003;62855;50.718;-2.460;2023-07-29T17:28:06;4.54;3.91;
74419;PMS5003;62855;50.718;-2.460;2023-07-29T17:31:05;6.35;3.91;
74419;PMS5003;62855;50.718;-2.460;2023-07-29T17:34:06;5.45;2.93;
74419;PMS5003;62855;50.718;-2.460;2023-07-29T17:37:05;6.35;4.89;
74419;PMS5003;62855;50.718;-2.460;2023-07-29T17:40:06;8.17;4.89;
74419;PMS5003;62855;50.718;-2.460;2023-07-29T17:43:06;10.89;4.89;
74419;PMS5003;62855;50.718;-2.460;2023-07-29T17:46:06;9.98;3.91;
74419;PMS5003;62855;50.718;-2.460;2023-07-29T17:49:05;9.98;3.91;
74419;PMS5003;62855;50.718;-2.460;2023-07-29T17:52:07;9.08;2.93;
74419;PMS5003;62855;50.718;-2.460;2023-07-29T17:55:06;8.17;2.93;
74419;PMS5003;62855;50.718;-2.460;2023-07-29T17:58:06;8.17;2.93;
74419;PMS5003;62855;50.718;-2.460;2023-07-29T18:01:06;6.35;2.93;
74419;PMS5003;62855;50.718;-2.460;2023-07-29T18:04:05;5.45;2.93;
74419;PMS5003;62855;50.718;-2.460;2023-07-29T18:07:06;5.45;2.93;
74419;PMS5003;62855;50.718;-2.460;2023-07-29T18:10:06;4.54;2.93;
74419;PMS5003;62855;50.718;-2.460;2023-07-29T18:13:06;5.45;2.93;
74419;PMS5003;62855;50.718;-2.460;2023-07-29T18:16:05;3.63;1.96;
74419;PMS5003;62855;50.718;-2.460;2023-07-29T18:19:06;3.63;2.93;
74419;PMS5003;62855;50.718;-2.460;2023-07-29T18:22:06;1.82;1.96;
74419;PMS5003;62855;50.718;-2.460;2023-07-29T18:25:06;1.82;1.96;
74419;PMS5003;62855;50.718;-2.460;2023-07-29T18:28:06;1.82;1.96;
74419;PMS5003;62855;50.718;-2.460;2023-07-29T18:31:06;1.82;0.98;
74419;PMS5003;62855;50.718;-2.460;2023-07-29T18:34:05;1.82;0.98;
74419;PMS5003;62855;50.718;-2.460;2023-07-29T18:37:06;1.82;0.98;
74419;PMS5003;62855;50.718;-2.460;2023-07-29T18:40:06;1.82;0.98;
74419;PMS5003;62855;50.718;-2.460;2023-07-29T18:43:06;1.82;1.96;
74419;PMS5003;62855;50.718;-2.460;2023-07-29T18:46:06;0.91;0.98;
74419;PMS5003;62855;50.718;-2.460;2023-07-29T18:49:05;1.82;1.96;